Time;durP1;ratioP1;P1;durP2;ratioP2;P2;SDS_P1;SDS_P2;PMS_P1;PMS_P2;Temp;Humidity;BMP_temperature;BMP_pressure;BME280_temperature;BME280_humidity;BME280_pressure;Samples;Min_cycle;Max_cycle;Signal;HPM_P1;HPM_P2
2023/08/30 00:00:39;;;;;;;31.83;18.83;;;13.60;99.90;;;;;;5056411;28;20115;-78
2023/08/30 00:03:06;;;;;;;24.15;16.20;;;13.50;99.90;;;;;;5056422;28;20135;-77
2023/08/30 00:05:31;;;;;;;25.77;15.65;;;13.50;99.90;;;;;;5074299;28;20115;-78
2023/08/30 00:07:57;;;;;;;27.00;16.35;;;13.40;99.90;;;;;;5074121;28;20127;-78
2023/08/30 00:10:23;;;;;;;26.83;16.60;;;13.40;99.90;;;;;;5056254;28;20032;-77
2023/08/30 00:12:49;;;;;;;26.00;17.02;;;13.40;99.90;;;;;;5056176;28;20056;-78
2023/08/30 00:15:15;;;;;;;26.15;15.30;;;13.30;99.90;;;;;;5056300;28;20040;-78
2023/08/30 00:17:41;;;;;;;23.48;14.40;;;13.30;99.90;;;;;;5056203;28;20138;-78
2023/08/30 00:20:08;;;;;;;22.80;16.00;;;13.30;99.90;;;;;;5056228;28;20051;-78
2023/08/30 00:22:34;;;;;;;23.77;15.00;;;13.20;99.90;;;;;;5055978;28;20059;-78
2023/08/30 00:25:00;;;;;;;24.75;15.85;;;13.20;99.90;;;;;;5055886;28;20036;-78
2023/08/30 00:27:25;;;;;;;24.52;15.43;;;13.20;99.90;;;;;;5056231;28;20044;-78
2023/08/30 00:29:51;;;;;;;23.45;15.48;;;13.20;99.90;;;;;;5056031;28;20162;-78
2023/08/30 00:32:17;;;;;;;24.60;15.88;;;13.20;99.90;;;;;;5055849;28;20056;-78
2023/08/30 00:34:42;;;;;;;25.35;16.55;;;13.20;99.90;;;;;;5055904;28;20105;-78
2023/08/30 00:37:08;;;;;;;25.30;16.40;;;13.20;99.90;;;;;;5056068;28;20044;-78
2023/08/30 00:39:37;;;;;;;27.77;17.90;;;13.20;99.90;;;;;;5055805;28;20496;-78
2023/08/30 00:42:05;;;;;;;28.27;17.83;;;13.20;99.90;;;;;;5055913;28;20414;-78
2023/08/30 00:44:32;;;;;;;28.85;17.42;;;13.20;99.90;;;;;;5074006;28;20059;-78
2023/08/30 00:46:58;;;;;;;29.38;18.75;;;13.20;99.90;;;;;;5055884;28;20041;-78
2023/08/30 00:49:24;;;;;;;29.83;18.55;;;13.20;99.90;;;;;;5055131;28;20561;-78
2023/08/30 00:51:51;;;;;;;29.50;18.20;;;13.30;99.90;;;;;;5055557;28;20403;-78
2023/08/30 00:54:17;;;;;;;29.85;19.55;;;13.30;99.90;;;;;;5055644;28;20041;-77
2023/08/30 00:56:43;;;;;;;29.95;19.25;;;13.30;99.90;;;;;;5055897;28;20105;-78
2023/08/30 00:59:09;;;;;;;30.83;18.33;;;13.30;99.90;;;;;;5055620;28;20124;-78
2023/08/30 01:01:35;;;;;;;30.60;18.85;;;13.40;99.90;;;;;;5055614;28;20048;-78
2023/08/30 01:04:01;;;;;;;27.17;18.67;;;13.40;99.90;;;;;;5055691;28;20056;-78
2023/08/30 01:06:30;;;;;;;28.52;18.70;;;13.40;99.90;;;;;;5055741;28;20060;-78
2023/08/30 01:08:56;;;;;;;27.40;17.95;;;13.40;99.90;;;;;;5072494;28;20186;-77
2023/08/30 01:11:43;;;;;;;28.98;18.67;;;13.40;99.90;;;;;;5073377;28;20450;-78
2023/08/30 01:14:20;;;;;;;31.38;18.08;;;13.40;99.90;;;;;;5073533;28;20052;-78
2023/08/30 01:16:46;;;;;;;28.88;19.38;;;13.50;99.90;;;;;;5055431;28;20083;-78
2023/08/30 01:19:38;;;;;;;30.83;20.70;;;13.50;99.90;;;;;;5055348;28;20068;-78
2023/08/30 01:22:34;;;;;;;31.55;20.77;;;13.50;99.90;;;;;;5055527;28;20422;-78
2023/08/30 01:25:15;;;;;;;33.30;22.10;;;13.60;99.90;;;;;;5055555;28;20057;-78
2023/08/30 01:27:43;;;;;;;32.65;20.08;;;13.70;99.90;;;;;;5055371;28;20120;-78
2023/08/30 01:30:11;;;;;;;30.40;18.38;;;13.60;99.90;;;;;;5073223;28;20426;-78
2023/08/30 01:32:38;;;;;;;33.78;20.25;;;13.70;99.90;;;;;;5051697;28;20083;-79
2023/08/30 01:35:09;;;;;;;32.97;20.20;;;13.70;99.90;;;;;;5051759;28;20559;-78
2023/08/30 01:37:42;;;;;;;30.88;19.13;;;13.70;99.90;;;;;;5051866;28;20045;-78
2023/08/30 01:40:09;;;;;;;30.83;18.23;;;13.70;99.90;;;;;;5051738;28;20491;-78
2023/08/30 01:42:37;;;;;;;29.67;18.77;;;13.80;99.90;;;;;;5053081;28;20045;-77
2023/08/30 01:45:08;;;;;;;32.15;21.45;;;13.80;99.90;;;;;;5051765;28;20731;-78
2023/08/30 01:47:35;;;;;;;33.15;20.75;;;13.80;99.90;;;;;;5051880;28;20048;-78
2023/08/30 01:50:01;;;;;;;36.03;21.98;;;13.80;99.90;;;;;;5053149;28;20045;-78
2023/08/30 01:52:27;;;;;;;33.88;20.38;;;13.80;99.90;;;;;;5053051;28;20041;-78
2023/08/30 01:54:53;;;;;;;31.13;19.95;;;13.80;99.90;;;;;;5053154;28;20503;-78
2023/08/30 01:57:19;;;;;;;33.83;19.83;;;13.80;99.90;;;;;;5052026;28;20114;-78
2023/08/30 01:59:45;;;;;;;30.80;21.48;;;13.80;99.90;;;;;;5052662;28;20072;-77
2023/08/30 02:02:11;;;;;;;36.25;22.10;;;13.90;99.90;;;;;;5056813;28;20091;-78
2023/08/30 02:04:36;;;;;;;32.67;20.60;;;13.90;99.90;;;;;;5055614;28;20059;-78
2023/08/30 02:07:13;;;;;;;34.17;20.20;;;13.90;99.90;;;;;;5055654;28;20049;-78
2023/08/30 02:09:44;;;;;;;32.88;20.05;;;13.90;99.90;;;;;;5056932;28;20045;-78
2023/08/30 02:12:16;;;;;;;33.35;20.20;;;13.80;99.90;;;;;;5065537;28;20057;-78
2023/08/30 02:14:47;;;;;;;32.35;20.25;;;13.80;99.90;;;;;;5075329;28;20055;-78
2023/08/30 02:17:15;;;;;;;33.30;19.88;;;13.80;99.90;;;;;;5075153;28;20049;-78
2023/08/30 02:19:55;;;;;;;31.10;20.05;;;13.80;99.90;;;;;;5076386;28;20095;-79
2023/08/30 02:22:20;;;;;;;34.53;20.63;;;13.70;99.90;;;;;;5076374;28;20051;-78
2023/08/30 02:24:50;;;;;;;33.95;21.40;;;13.70;99.90;;;;;;5076214;28;20111;-78
2023/08/30 02:27:16;;;;;;;31.67;19.55;;;13.70;99.90;;;;;;5075128;28;20537;-78
2023/08/30 02:29:41;;;;;;;30.70;20.52;;;13.70;99.90;;;;;;5074803;28;20053;-78
2023/08/30 02:32:07;;;;;;;31.15;19.83;;;13.70;99.90;;;;;;5075043;28;20131;-78
2023/08/30 02:34:35;;;;;;;32.35;20.23;;;13.70;99.90;;;;;;5076355;28;20426;-78
2023/08/30 02:37:01;;;;;;;31.58;19.73;;;13.70;99.90;;;;;;5074799;28;20040;-78
2023/08/30 02:39:27;;;;;;;31.67;20.00;;;13.60;99.90;;;;;;5076077;28;20114;-78
2023/08/30 02:41:53;;;;;;;34.60;20.50;;;13.70;99.90;;;;;;5074491;28;20080;-78
2023/08/30 02:44:18;;;;;;;33.13;20.38;;;13.70;99.90;;;;;;5074559;28;20102;-78
2023/08/30 02:46:44;;;;;;;32.95;19.40;;;13.70;99.90;;;;;;5074743;28;20036;-78
2023/08/30 02:49:11;;;;;;;33.08;20.05;;;13.70;99.90;;;;;;5075837;28;20053;-78
2023/08/30 02:51:36;;;;;;;34.15;20.90;;;13.60;99.90;;;;;;5074861;28;20487;-78
2023/08/30 02:54:02;;;;;;;34.13;21.30;;;13.60;99.90;;;;;;5074886;28;20060;-78
2023/08/30 02:56:28;;;;;;;33.25;20.55;;;13.50;99.90;;;;;;5074559;28;20577;-77
2023/08/30 02:58:53;;;;;;;34.45;20.83;;;13.50;99.90;;;;;;5074289;28;20040;-78
2023/08/30 03:01:19;;;;;;;33.65;19.27;;;13.50;99.90;;;;;;5074593;28;20048;-78
2023/08/30 03:03:48;;;;;;;34.55;20.45;;;13.40;99.90;;;;;;5074157;28;20102;-77
2023/08/30 03:06:16;;;;;;;33.30;20.10;;;13.50;99.90;;;;;;5074387;28;20483;-78
2023/08/30 03:08:42;;;;;;;34.05;19.92;;;13.40;99.90;;;;;;5074306;28;20048;-78
2023/08/30 03:11:16;;;;;;;31.83;19.77;;;13.40;99.90;;;;;;5076155;28;20040;-78
2023/08/30 03:13:43;;;;;;;37.05;21.92;;;13.40;99.90;;;;;;5077423;28;20135;-78
2023/08/30 03:16:16;;;;;;;31.77;19.98;;;13.40;99.90;;;;;;5077749;28;20169;-77
2023/08/30 03:18:42;;;;;;;33.47;20.98;;;13.30;99.90;;;;;;5074133;28;20052;-77
2023/08/30 03:21:08;;;;;;;31.73;20.20;;;13.30;99.90;;;;;;5074375;28;20068;-78
2023/08/30 03:23:35;;;;;;;35.90;20.55;;;13.20;99.90;;;;;;5076402;28;20167;-78
2023/08/30 03:26:21;;;;;;;35.30;21.05;;;13.20;99.90;;;;;;5077360;28;20471;-78
2023/08/30 03:28:47;;;;;;;34.20;20.48;;;13.20;99.90;;;;;;5076833;28;20048;-78
2023/08/30 03:31:13;;;;;;;31.33;19.23;;;13.20;99.90;;;;;;5095374;28;20040;-77
2023/08/30 03:33:41;;;;;;;37.42;19.88;;;13.10;99.90;;;;;;5076995;28;20093;-78
2023/08/30 03:36:08;;;;;;;34.58;18.95;;;13.20;99.90;;;;;;5077169;28;20044;-78
2023/08/30 03:38:33;;;;;;;32.28;18.70;;;13.10;99.90;;;;;;5095074;28;20056;-78
2023/08/30 03:40:59;;;;;;;32.90;19.13;;;13.10;99.90;;;;;;5076940;28;20054;-78
2023/08/30 03:43:24;;;;;;;31.30;17.23;;;13.10;99.90;;;;;;5095059;28;20046;-78
2023/08/30 03:45:50;;;;;;;30.67;17.35;;;13.10;99.90;;;;;;5076922;28;20048;-78
2023/08/30 03:48:16;;;;;;;29.38;17.67;;;13.10;99.90;;;;;;5077180;28;20036;-78
2023/08/30 03:50:44;;;;;;;30.65;18.90;;;13.10;99.90;;;;;;5077098;28;20040;-78
2023/08/30 03:53:10;;;;;;;32.75;17.48;;;13.10;99.90;;;;;;5076689;28;20399;-78
2023/08/30 03:55:35;;;;;;;30.80;18.30;;;13.00;99.90;;;;;;5076542;28;20043;-77
2023/08/30 03:58:01;;;;;;;30.48;17.98;;;13.00;99.90;;;;;;5077035;28;20131;-77
2023/08/30 04:00:27;;;;;;;31.88;17.88;;;13.00;99.90;;;;;;5076826;28;20421;-78
2023/08/30 04:02:52;;;;;;;34.83;19.38;;;13.00;99.90;;;;;;5076476;28;20047;-78
2023/08/30 04:05:21;;;;;;;32.70;18.70;;;13.00;99.90;;;;;;5076538;28;20052;-78
2023/08/30 04:07:46;;;;;;;30.98;17.65;;;13.00;99.90;;;;;;5076610;28;20112;-78
2023/08/30 04:10:12;;;;;;;33.30;18.92;;;13.00;99.90;;;;;;5076658;28;20044;-78
2023/08/30 04:12:37;;;;;;;30.40;17.80;;;12.90;99.90;;;;;;5076219;28;20067;-78
2023/08/30 04:15:03;;;;;;;33.05;19.20;;;12.90;99.90;;;;;;5076415;28;20075;-78
2023/08/30 04:17:29;;;;;;;31.88;17.48;;;13.00;99.90;;;;;;5076430;28;20055;-78
2023/08/30 04:19:54;;;;;;;33.42;18.45;;;13.00;99.90;;;;;;5076098;28;20123;-78
2023/08/30 04:22:20;;;;;;;31.35;18.75;;;13.00;99.90;;;;;;5075929;28;20044;-78
2023/08/30 04:24:46;;;;;;;32.50;19.15;;;13.00;99.90;;;;;;5076150;28;20067;-78
2023/08/30 04:27:12;;;;;;;35.45;19.45;;;13.00;99.90;;;;;;5094173;28;20043;-78
2023/08/30 04:29:38;;;;;;;33.38;19.23;;;13.00;99.90;;;;;;5076108;28;20047;-78
2023/08/30 04:32:04;;;;;;;35.25;20.10;;;13.00;99.90;;;;;;5076258;28;20051;-78
2023/08/30 04:34:30;;;;;;;32.28;18.88;;;13.00;99.90;;;;;;5094210;28;20051;-78
2023/08/30 04:36:56;;;;;;;34.00;19.10;;;13.00;99.90;;;;;;5075924;28;20040;-78
2023/08/30 04:39:22;;;;;;;34.05;20.05;;;13.00;99.90;;;;;;5075955;28;20101;-78
2023/08/30 04:41:48;;;;;;;31.40;18.48;;;13.00;99.90;;;;;;5075887;28;20040;-78
2023/08/30 04:44:13;;;;;;;30.52;18.00;;;13.10;99.90;;;;;;5075954;28;20047;-79
2023/08/30 04:46:39;;;;;;;31.38;18.30;;;13.10;99.90;;;;;;5076098;28;20129;-79
2023/08/30 04:49:04;;;;;;;34.70;19.40;;;13.10;99.90;;;;;;5075935;28;20052;-79
2023/08/30 04:51:30;;;;;;;30.75;18.30;;;13.20;99.90;;;;;;5093933;28;20131;-79
2023/08/30 04:53:56;;;;;;;32.67;19.02;;;13.20;99.90;;;;;;5075956;28;20044;-79
2023/08/30 04:56:24;;;;;;;33.88;18.23;;;13.20;99.90;;;;;;5075660;28;20479;-79
2023/08/30 04:58:50;;;;;;;31.30;17.73;;;13.30;99.90;;;;;;5075545;28;20044;-79
2023/08/30 05:01:25;;;;;;;34.38;17.98;;;13.20;99.90;;;;;;5092707;28;20101;-79
2023/08/30 05:03:50;;;;;;;33.67;18.75;;;13.30;99.90;;;;;;5075443;28;20482;-79
2023/08/30 05:06:16;;;;;;;31.33;19.13;;;13.20;99.90;;;;;;5093819;28;20044;-79
2023/08/30 05:08:42;;;;;;;32.53;19.33;;;13.30;99.90;;;;;;5075804;28;20039;-79
2023/08/30 05:11:09;;;;;;;29.20;17.02;;;13.30;99.90;;;;;;5093318;28;20119;-78
2023/08/30 05:13:36;;;;;;;35.42;18.10;;;13.20;99.90;;;;;;5075359;28;20048;-78
2023/08/30 05:16:02;;;;;;;32.17;19.05;;;13.30;99.90;;;;;;5075215;28;20052;-79
2023/08/30 05:18:27;;;;;;;35.85;19.42;;;13.20;99.90;;;;;;5093680;28;20051;-79
2023/08/30 05:20:53;;;;;;;33.65;18.60;;;13.20;99.90;;;;;;5093665;28;20048;-79
2023/08/30 05:23:19;;;;;;;33.63;19.10;;;13.30;99.90;;;;;;5075303;28;20048;-79
2023/08/30 05:25:44;;;;;;;36.88;19.65;;;13.30;99.90;;;;;;5075317;28;20050;-79
2023/08/30 05:28:10;;;;;;;35.65;19.50;;;13.30;99.90;;;;;;5093268;28;20043;-79
2023/08/30 05:30:36;;;;;;;33.40;19.90;;;13.30;99.90;;;;;;5075160;28;20103;-79
2023/08/30 05:33:02;;;;;;;35.25;20.02;;;13.40;99.90;;;;;;5093845;28;20048;-79
2023/08/30 05:35:27;;;;;;;36.03;19.52;;;13.40;99.90;;;;;;5095359;28;20047;-79
2023/08/30 05:37:53;;;;;;;35.83;18.63;;;13.30;99.90;;;;;;5072707;28;20040;-79
2023/08/30 05:40:19;;;;;;;35.08;19.02;;;13.40;99.90;;;;;;5071991;28;20101;-78
2023/08/30 05:42:45;;;;;;;34.72;19.38;;;13.40;99.90;;;;;;5081989;28;20131;-78
2023/08/30 05:45:13;;;;;;;34.80;19.85;;;13.40;99.90;;;;;;5059496;28;20403;-79
2023/08/30 05:47:39;;;;;;;35.50;19.27;;;13.30;99.90;;;;;;5078938;28;20040;-79
2023/08/30 05:50:05;;;;;;;36.15;19.85;;;13.30;99.90;;;;;;5079148;28;20032;-79
2023/08/30 05:52:31;;;;;;;34.05;19.58;;;13.30;99.90;;;;;;5079100;28;20369;-79
2023/08/30 05:54:57;;;;;;;36.58;19.67;;;13.30;99.90;;;;;;5078768;28;20055;-79
2023/08/30 05:57:24;;;;;;;34.90;19.58;;;13.40;99.90;;;;;;5096927;28;20040;-79
2023/08/30 05:59:50;;;;;;;33.97;19.25;;;13.40;99.90;;;;;;5097163;28;20072;-78
2023/08/30 06:02:15;;;;;;;39.28;20.70;;;13.40;99.90;;;;;;5078550;28;20068;-78
2023/08/30 06:04:41;;;;;;;41.95;19.98;;;13.30;99.90;;;;;;5096757;28;20044;-79
2023/08/30 06:07:08;;;;;;;35.28;19.33;;;13.30;99.90;;;;;;5078621;28;20051;-79
2023/08/30 06:09:33;;;;;;;35.47;19.52;;;13.30;99.90;;;;;;5096834;28;20051;-78
2023/08/30 06:12:03;;;;;;;33.53;18.65;;;13.40;99.90;;;;;;5096412;28;20407;-78
2023/08/30 06:14:29;;;;;;;32.75;19.15;;;13.40;99.90;;;;;;5096701;28;20051;-79
2023/08/30 06:16:55;;;;;;;35.22;19.30;;;13.50;99.90;;;;;;5077088;28;20124;-78
2023/08/30 06:19:23;;;;;;;34.55;19.60;;;13.40;99.90;;;;;;5076741;28;20507;-78
2023/08/30 06:21:48;;;;;;;36.58;19.02;;;13.50;99.90;;;;;;5084011;28;20078;-77
2023/08/30 06:24:14;;;;;;;32.30;18.77;;;13.50;99.90;;;;;;5085570;28;20092;-77
2023/08/30 06:26:40;;;;;;;33.35;19.25;;;13.50;99.90;;;;;;5057871;28;20041;-78
2023/08/30 06:29:05;;;;;;;33.33;19.13;;;13.50;99.90;;;;;;5077050;28;20079;-78
2023/08/30 06:31:32;;;;;;;37.42;18.90;;;13.50;99.90;;;;;;5078333;28;20059;-77
2023/08/30 06:33:57;;;;;;;39.38;19.55;;;13.60;99.90;;;;;;5078192;28;20056;-77
2023/08/30 06:36:29;;;;;;;36.05;19.65;;;13.60;99.90;;;;;;5096353;28;20059;-77
2023/08/30 06:39:03;;;;;;;40.10;19.77;;;13.60;99.90;;;;;;5078004;28;20079;-79
2023/08/30 06:41:35;;;;;;;41.03;20.85;;;13.60;99.90;;;;;;5077668;28;20094;-79
2023/08/30 06:44:01;;;;;;;37.92;19.85;;;13.70;99.90;;;;;;5095777;28;20470;-79
2023/08/30 06:46:26;;;;;;;34.63;18.83;;;13.70;99.90;;;;;;5094410;28;20094;-77
2023/08/30 06:48:52;;;;;;;34.30;18.60;;;13.70;99.90;;;;;;5095740;28;20052;-77
2023/08/30 06:51:18;;;;;;;39.05;19.27;;;13.70;99.90;;;;;;5095652;28;20040;-77
2023/08/30 06:53:43;;;;;;;35.17;18.80;;;13.80;99.90;;;;;;5095823;28;20055;-77
2023/08/30 06:56:09;;;;;;;34.50;18.40;;;13.90;99.90;;;;;;5064586;28;20044;-79
2023/08/30 06:58:34;;;;;;;32.63;17.17;;;13.90;99.90;;;;;;5067529;28;20076;-79
2023/08/30 07:01:00;;;;;;;39.22;18.65;;;13.90;99.90;;;;;;5057141;28;20094;-79
2023/08/30 07:03:26;;;;;;;38.25;19.77;;;13.90;99.90;;;;;;5075446;28;20048;-80
2023/08/30 07:05:52;;;;;;;33.10;17.52;;;14.00;99.90;;;;;;5056830;28;20053;-80
2023/08/30 07:08:21;;;;;;;34.42;18.75;;;14.00;99.90;;;;;;5075158;28;20070;-79
2023/08/30 07:10:56;;;;;;;31.33;17.98;;;14.10;99.90;;;;;;5086354;28;20044;-80
2023/08/30 07:13:22;;;;;;;33.88;18.10;;;14.20;99.90;;;;;;5056210;28;20381;-79
2023/08/30 07:15:48;;;;;;;27.40;16.42;;;14.30;99.90;;;;;;5056934;28;20059;-80
2023/08/30 07:18:13;;;;;;;29.30;15.90;;;14.40;99.90;;;;;;5056430;28;20428;-80
2023/08/30 07:20:45;;;;;;;29.17;15.15;;;14.40;99.90;;;;;;5074290;28;20175;-79
2023/08/30 07:23:13;;;;;;;29.65;15.93;;;14.50;99.90;;;;;;5055996;28;20041;-79
2023/08/30 07:25:42;;;;;;;27.20;14.00;;;14.60;99.90;;;;;;5055564;28;20037;-80
2023/08/30 07:28:08;;;;;;;25.75;13.68;;;14.70;99.90;;;;;;5070574;28;20045;-80
2023/08/30 07:30:37;;;;;;;26.45;13.55;;;14.80;99.90;;;;;;5056004;28;20044;-80
2023/08/30 07:33:04;;;;;;;25.88;13.43;;;14.90;99.90;;;;;;5074325;28;20044;-80
2023/08/30 07:35:30;;;;;;;29.38;13.55;;;15.10;99.90;;;;;;5055673;28;20058;-80
2023/08/30 07:37:56;;;;;;;22.27;12.82;;;15.10;99.90;;;;;;5056135;28;20052;-80
2023/08/30 07:40:28;;;;;;;25.75;13.15;;;15.10;99.90;;;;;;5073933;28;20032;-79
2023/08/30 07:42:54;;;;;;;24.85;13.32;;;15.20;99.90;;;;;;5074480;28;20051;-80
2023/08/30 07:45:20;;;;;;;25.02;12.60;;;15.20;99.90;;;;;;5056535;28;20040;-80
2023/08/30 07:47:46;;;;;;;26.77;13.35;;;15.20;99.90;;;;;;5056817;28;20045;-80
2023/08/30 07:50:12;;;;;;;25.02;13.05;;;15.20;99.90;;;;;;5074614;28;20123;-77
2023/08/30 07:52:37;;;;;;;24.08;12.15;;;15.20;99.90;;;;;;5074656;28;20076;-76
2023/08/30 07:55:03;;;;;;;25.98;12.90;;;15.30;99.90;;;;;;5074474;28;20420;-76
2023/08/30 07:57:32;;;;;;;26.15;13.13;;;15.30;99.90;;;;;;5073674;28;20476;-75
2023/08/30 07:59:57;;;;;;;24.73;12.95;;;15.40;99.90;;;;;;5056470;28;20056;-76
2023/08/30 08:02:23;;;;;;;26.85;12.60;;;15.40;99.90;;;;;;5056383;28;20041;-76
2023/08/30 08:04:49;;;;;;;27.27;12.63;;;15.40;99.90;;;;;;5056220;28;20622;-76
2023/08/30 08:07:18;;;;;;;21.00;12.35;;;15.50;99.90;;;;;;5055920;28;20498;-76
2023/08/30 08:09:43;;;;;;;24.10;12.48;;;15.60;99.90;;;;;;5072918;28;20210;-76
2023/08/30 08:12:09;;;;;;;27.95;12.52;;;15.60;99.90;;;;;;5073758;28;20052;-77
2023/08/30 08:14:35;;;;;;;24.90;12.77;;;15.70;99.90;;;;;;5055992;28;20403;-76
2023/08/30 08:17:00;;;;;;;25.30;13.23;;;15.70;99.90;;;;;;5055921;28;20127;-77
2023/08/30 08:19:26;;;;;;;23.08;12.00;;;15.80;99.90;;;;;;5056217;28;20052;-76
2023/08/30 08:21:53;;;;;;;23.83;13.25;;;15.90;99.90;;;;;;5055717;28;20454;-76
2023/08/30 08:24:19;;;;;;;26.00;13.18;;;15.80;99.90;;;;;;5054407;28;20070;-77
2023/08/30 08:26:44;;;;;;;25.33;13.50;;;15.80;99.90;;;;;;5073240;28;20048;-78
2023/08/30 08:29:10;;;;;;;26.48;14.13;;;15.90;99.90;;;;;;5071925;28;20051;-78
2023/08/30 08:31:35;;;;;;;24.75;12.45;;;15.80;99.90;;;;;;5072466;28;20139;-77
2023/08/30 08:34:10;;;;;;;27.10;13.77;;;15.90;99.90;;;;;;5055100;28;20091;-77
2023/08/30 08:36:39;;;;;;;29.67;13.82;;;15.90;99.90;;;;;;5072670;28;20072;-77
2023/08/30 08:39:06;;;;;;;31.77;14.68;;;16.00;99.90;;;;;;5055981;28;20045;-80
2023/08/30 08:41:43;;;;;;;33.40;14.82;;;16.00;99.90;;;;;;5055752;28;20377;-78
2023/08/30 08:44:10;;;;;;;31.13;16.05;;;16.10;99.90;;;;;;5073513;28;20040;-77
2023/08/30 08:46:38;;;;;;;29.80;15.68;;;16.20;99.90;;;;;;5055874;28;20040;-78
2023/08/30 08:49:16;;;;;;;33.75;17.27;;;16.20;99.90;;;;;;5055889;28;20051;-77
2023/08/30 08:51:43;;;;;;;31.58;16.33;;;16.20;99.90;;;;;;5073818;28;20072;-77
2023/08/30 08:54:16;;;;;;;31.70;17.10;;;16.20;99.90;;;;;;5055491;28;20059;-77
2023/08/30 08:56:43;;;;;;;33.03;16.17;;;16.20;99.90;;;;;;5073435;28;20166;-77
2023/08/30 08:59:09;;;;;;;31.55;16.05;;;16.20;99.90;;;;;;5055585;28;20048;-77
2023/08/30 09:01:35;;;;;;;32.65;17.20;;;16.20;99.90;;;;;;5073597;28;20062;-78
2023/08/30 09:04:08;;;;;;;32.63;16.70;;;16.20;99.90;;;;;;5055557;28;20591;-77
2023/08/30 09:06:35;;;;;;;32.35;16.75;;;16.30;99.90;;;;;;5073897;28;20040;-77
2023/08/30 09:09:05;;;;;;;36.47;16.88;;;16.30;99.90;;;;;;5054782;28;20072;-77
2023/08/30 09:11:31;;;;;;;30.00;16.30;;;16.30;99.90;;;;;;5055396;28;20045;-77
2023/08/30 09:13:57;;;;;;;37.65;18.08;;;16.40;99.90;;;;;;5073475;28;20045;-77
2023/08/30 09:16:23;;;;;;;32.90;17.58;;;16.40;99.90;;;;;;5073192;28;20050;-78
2023/08/30 09:19:02;;;;;;;30.60;17.00;;;16.50;99.90;;;;;;5073496;28;20121;-76
2023/08/30 09:21:29;;;;;;;34.17;18.20;;;16.50;99.90;;;;;;5055673;28;20416;-77
2023/08/30 09:24:02;;;;;;;33.30;16.88;;;16.60;99.90;;;;;;5055320;28;20419;-78
2023/08/30 09:26:29;;;;;;;35.15;18.65;;;16.60;99.90;;;;;;5073518;28;20044;-77
2023/08/30 09:29:08;;;;;;;39.08;17.50;;;16.50;99.90;;;;;;5055227;28;20465;-78
2023/08/30 09:31:40;;;;;;;34.00;17.83;;;16.50;99.90;;;;;;5055595;28;20040;-78
2023/08/30 09:34:06;;;;;;;27.27;11.43;;;16.50;99.90;;;;;;5055171;28;20166;-77
2023/08/30 09:36:40;;;;;;;22.55;10.18;;;16.50;99.90;;;;;;5055638;28;20049;-77
2023/08/30 09:39:12;;;;;;;23.02;11.38;;;16.40;99.90;;;;;;5055387;28;20045;-77
2023/08/30 09:41:41;;;;;;;26.03;11.90;;;16.30;99.90;;;;;;5055429;28;20041;-77
2023/08/30 09:44:15;;;;;;;22.27;11.05;;;16.30;99.90;;;;;;5055183;28;20052;-78
2023/08/30 09:46:52;;;;;;;24.58;10.73;;;16.30;99.90;;;;;;5072962;28;20044;-77
2023/08/30 09:49:21;;;;;;;23.52;10.98;;;16.40;99.90;;;;;;5054911;28;20051;-77
2023/08/30 09:51:48;;;;;;;26.27;10.50;;;16.40;99.90;;;;;;5054962;28;20047;-77
2023/08/30 09:54:17;;;;;;;19.17;10.23;;;16.40;99.90;;;;;;5055174;28;20044;-77
2023/08/30 09:56:45;;;;;;;16.10;10.00;;;16.30;99.90;;;;;;5072791;28;20450;-77
2023/08/30 09:59:12;;;;;;;17.30;9.90;;;16.30;99.90;;;;;;5054756;28;20045;-76
2023/08/30 10:01:43;;;;;;;16.40;9.45;;;16.30;99.90;;;;;;5055084;28;20056;-77
2023/08/30 10:04:09;;;;;;;19.20;10.25;;;16.40;99.90;;;;;;5054782;28;20037;-77
2023/08/30 10:06:36;;;;;;;15.90;9.20;;;16.40;99.90;;;;;;5054613;28;20474;-77
2023/08/30 10:09:05;;;;;;;16.73;9.05;;;16.40;99.90;;;;;;5054990;28;20127;-78
2023/08/30 10:11:48;;;;;;;17.00;10.35;;;16.40;99.90;;;;;;5054634;28;20127;-77
2023/08/30 10:14:14;;;;;;;17.25;10.02;;;16.40;99.90;;;;;;5054815;28;20078;-77
2023/08/30 10:16:44;;;;;;;18.27;10.35;;;16.40;99.90;;;;;;5054786;28;20048;-77
2023/08/30 10:19:15;;;;;;;18.52;10.77;;;16.40;99.90;;;;;;5054680;28;20377;-78
2023/08/30 10:21:43;;;;;;;17.17;10.57;;;16.50;99.90;;;;;;5057201;28;20102;-77
2023/08/30 10:24:15;;;;;;;16.77;10.68;;;16.40;99.90;;;;;;5076039;28;20052;-77
2023/08/30 10:26:42;;;;;;;19.48;10.88;;;16.50;99.90;;;;;;5076357;28;20040;-77
2023/08/30 10:29:10;;;;;;;16.67;10.88;;;16.50;99.90;;;;;;5058467;28;20048;-77
2023/08/30 10:31:39;;;;;;;16.33;10.52;;;16.50;99.90;;;;;;5058366;28;20087;-77
2023/08/30 10:34:19;;;;;;;16.83;10.40;;;16.50;99.90;;;;;;5076036;28;20127;-77
2023/08/30 10:36:45;;;;;;;16.08;10.05;;;16.40;99.90;;;;;;5058334;28;20048;-77
2023/08/30 10:39:15;;;;;;;18.70;10.48;;;16.30;99.90;;;;;;5076120;28;20107;-77
2023/08/30 10:41:59;;;;;;;19.75;11.27;;;16.20;99.90;;;;;;5076043;28;20048;-77
2023/08/30 10:44:24;;;;;;;16.23;10.20;;;16.20;99.90;;;;;;5076044;28;20519;-77
2023/08/30 10:46:54;;;;;;;17.17;9.93;;;16.10;99.90;;;;;;5076144;28;20047;-77
2023/08/30 10:49:20;;;;;;;23.30;11.18;;;16.10;99.90;;;;;;5075709;28;20055;-77
2023/08/30 10:51:57;;;;;;;19.75;10.80;;;16.20;99.90;;;;;;5058071;28;20041;-77
2023/08/30 10:54:26;;;;;;;17.20;10.63;;;16.10;99.90;;;;;;5057921;28;20052;-77
2023/08/30 10:57:02;;;;;;;20.08;11.30;;;16.10;99.90;;;;;;5074337;28;20045;-78
2023/08/30 10:59:29;;;;;;;21.63;12.13;;;16.10;99.90;;;;;;5075818;28;20044;-77
2023/08/30 11:02:07;;;;;;;22.45;13.57;;;16.20;99.90;;;;;;5058001;28;20063;-77
2023/08/30 11:04:33;;;;;;;20.85;12.48;;;16.20;99.90;;;;;;5057879;28;20056;-77
2023/08/30 11:06:58;;;;;;;24.85;12.60;;;16.30;99.90;;;;;;5057460;28;20052;-78
2023/08/30 11:09:25;;;;;;;22.13;14.75;;;16.40;99.90;;;;;;5057463;28;20055;-77
2023/08/30 11:11:51;;;;;;;23.92;14.05;;;16.50;99.90;;;;;;5057544;28;20499;-78
2023/08/30 11:14:18;;;;;;;19.80;12.07;;;16.60;99.90;;;;;;5057337;28;20135;-77
2023/08/30 11:16:45;;;;;;;18.90;11.32;;;16.70;99.90;;;;;;5057250;28;20074;-77
2023/08/30 11:19:11;;;;;;;17.13;10.80;;;16.70;99.90;;;;;;5057249;28;20053;-77
2023/08/30 11:21:43;;;;;;;15.90;10.82;;;16.80;99.90;;;;;;5075348;28;20056;-77
2023/08/30 11:24:09;;;;;;;17.93;11.73;;;16.70;99.90;;;;;;5057113;28;20052;-77
2023/08/30 11:26:35;;;;;;;18.42;12.27;;;16.80;99.90;;;;;;5075006;28;20055;-77
2023/08/30 11:29:07;;;;;;;19.65;12.52;;;16.80;99.90;;;;;;5057240;28;20059;-77
2023/08/30 11:31:33;;;;;;;22.05;12.88;;;16.80;99.90;;;;;;5075242;28;20037;-77
2023/08/30 11:34:00;;;;;;;20.05;12.68;;;16.80;99.90;;;;;;5074343;28;20044;-77
2023/08/30 11:36:31;;;;;;;20.95;13.07;;;16.70;99.90;;;;;;5056798;28;20048;-77
2023/08/30 11:38:57;;;;;;;18.15;12.45;;;16.70;99.90;;;;;;5074764;28;20087;-77
2023/08/30 11:41:24;;;;;;;19.25;12.98;;;16.70;99.90;;;;;;5056931;28;20088;-77
2023/08/30 11:43:51;;;;;;;21.38;13.07;;;16.80;99.90;;;;;;5056664;28;20123;-77
2023/08/30 11:46:17;;;;;;;17.27;12.00;;;16.80;99.90;;;;;;5074923;28;20047;-78
2023/08/30 11:48:43;;;;;;;20.70;13.73;;;16.80;99.90;;;;;;5074478;28;20045;-78
2023/08/30 11:51:12;;;;;;;23.67;14.32;;;16.70;99.90;;;;;;5056790;28;20048;-77
2023/08/30 11:53:38;;;;;;;19.60;13.05;;;16.70;99.90;;;;;;5056738;28;20125;-77
2023/08/30 11:56:07;;;;;;;19.90;12.75;;;16.60;99.90;;;;;;5056487;28;20474;-77
2023/08/30 11:58:36;;;;;;;21.58;14.80;;;16.70;99.90;;;;;;5074402;28;20048;-77
2023/08/30 12:01:03;;;;;;;20.30;13.45;;;16.70;99.90;;;;;;5074527;28;20472;-77
2023/08/30 12:03:30;;;;;;;18.48;13.57;;;16.70;99.90;;;;;;5056264;28;20507;-77
2023/08/30 12:05:57;;;;;;;20.45;12.95;;;16.80;99.90;;;;;;5056353;28;20396;-77
2023/08/30 12:08:27;;;;;;;18.63;12.60;;;16.80;99.90;;;;;;5074235;28;20044;-77
2023/08/30 12:10:55;;;;;;;22.15;12.40;;;16.70;99.90;;;;;;5074479;28;20036;-77
2023/08/30 12:13:33;;;;;;;18.63;12.75;;;16.70;99.90;;;;;;5054680;28;20056;-77
2023/08/30 12:16:00;;;;;;;17.83;11.95;;;16.70;99.90;;;;;;5056253;28;20131;-77
2023/08/30 12:18:32;;;;;;;18.85;12.88;;;16.70;99.90;;;;;;5074283;28;20047;-78
2023/08/30 12:21:03;;;;;;;15.32;10.73;;;16.60;99.90;;;;;;5073974;28;20048;-78
2023/08/30 12:23:30;;;;;;;18.90;11.98;;;16.60;99.90;;;;;;5073849;28;20479;-77
2023/08/30 12:26:03;;;;;;;17.65;11.57;;;16.50;99.90;;;;;;5056170;28;20491;-77
2023/08/30 12:28:30;;;;;;;21.45;12.88;;;16.50;99.90;;;;;;5073864;28;20048;-77
2023/08/30 12:30:57;;;;;;;15.38;10.70;;;16.50;99.90;;;;;;5055887;28;20476;-77